createdAt,value
2023-04-10T00:00:24.324Z,102379.66
2023-04-10T00:02:53.540Z,102377.69
2023-04-10T00:05:23.045Z,102377.22
2023-04-10T00:07:52.165Z,102362.59
2023-04-10T00:10:21.279Z,102361.78
2023-04-10T00:12:51.197Z,102358.13
2023-04-10T00:15:21.752Z,102351.22
2023-04-10T00:17:55.131Z,102348.91
2023-04-10T00:20:26.231Z,102341.13
2023-04-10T00:22:55.626Z,102348.03
2023-04-10T00:25:24.698Z,102341.03
2023-04-10T00:27:54.016Z,102349.88
2023-04-10T00:30:24.778Z,102338.34
2023-04-10T00:32:53.976Z,102342.16
2023-04-10T00:35:23.022Z,102331.94
2023-04-10T00:37:54.480Z,102335.16
2023-04-10T00:40:23.681Z,102326.53
2023-04-10T00:42:53.046Z,102335.34
2023-04-10T00:45:23.712Z,102338.84
2023-04-10T00:47:53.454Z,102323.03
2023-04-10T00:50:23.112Z,102325.09
2023-04-10T00:52:52.700Z,102322.69
2023-04-10T00:55:21.884Z,102328.09
2023-04-10T00:57:50.976Z,102326.28
2023-04-10T01:00:20.507Z,102326.34
2023-04-10T01:02:52.172Z,102328.09
2023-04-10T01:05:21.726Z,102326.50
2023-04-10T01:08:03.761Z,102321.22
2023-04-10T01:10:43.994Z,102329.75
2023-04-10T01:13:22.868Z,102324.66
2023-04-10T01:16:10.450Z,102323.59
2023-04-10T01:18:47.360Z,102324.91
2023-04-10T01:21:18.032Z,102320.38
2023-04-10T01:24:19.846Z,102318.72
2023-04-10T01:27:06.072Z,102312.22
2023-04-10T01:29:44.503Z,102315.47
2023-04-10T01:32:17.754Z,102318.84
2023-04-10T01:34:48.878Z,102316.25
2023-04-10T01:37:21.444Z,102315.69
2023-04-10T01:39:55.925Z,102323.75
2023-04-10T01:42:26.472Z,102307.06
2023-04-10T01:44:58.349Z,102312.03
2023-04-10T01:47:29.032Z,102309.44
2023-04-10T01:49:59.926Z,102301.00
2023-04-10T01:52:31.335Z,102302.66
2023-04-10T01:55:11.410Z,102295.06
2023-04-10T01:57:48.862Z,102287.72
2023-04-10T02:00:19.586Z,102280.16
2023-04-10T02:02:48.934Z,102285.97
2023-04-10T02:05:18.707Z,102285.47
2023-04-10T02:07:56.128Z,102284.06
2023-04-10T02:10:31.397Z,102279.56
2023-04-10T02:13:06.590Z,102268.50
2023-04-10T02:15:40.891Z,102267.34
2023-04-10T02:18:12.381Z,102263.56
2023-04-10T02:20:42.409Z,102256.47
2023-04-10T02:23:11.753Z,102264.34
2023-04-10T02:25:40.954Z,102265.91
2023-04-10T02:28:10.673Z,102262.56
2023-04-10T02:30:41.105Z,102261.69
2023-04-10T02:33:13.225Z,102252.16
2023-04-10T02:35:42.398Z,102258.41
2023-04-10T02:38:11.508Z,102262.91
2023-04-10T02:40:40.559Z,102259.91
2023-04-10T02:43:14.991Z,102262.44
2023-04-10T02:45:46.464Z,102255.75
2023-04-10T02:48:21.537Z,102258.22
2023-04-10T02:50:58.522Z,102260.97
2023-04-10T02:53:28.803Z,102254.91
2023-04-10T02:56:02.299Z,102250.38
2023-04-10T02:58:31.640Z,102244.34
2023-04-10T03:01:03.169Z,102235.13
2023-04-10T03:03:59.024Z,102235.00
2023-04-10T03:06:34.346Z,102229.72
2023-04-10T03:09:03.533Z,102229.53
2023-04-10T03:11:32.590Z,102233.09
2023-04-10T03:14:01.662Z,102224.66
2023-04-10T03:16:32.245Z,102216.03
2023-04-10T03:19:04.905Z,102220.69
2023-04-10T03:21:33.983Z,102220.06
2023-04-10T03:24:03.083Z,102210.88
2023-04-10T03:26:32.144Z,102208.72
2023-04-10T03:29:01.678Z,102202.47
2023-04-10T03:31:32.206Z,102206.63
2023-04-10T03:34:03.045Z,102207.72
2023-04-10T03:36:32.131Z,102207.03
2023-04-10T03:39:01.170Z,102203.00
2023-04-10T03:41:30.982Z,102199.22
2023-04-10T03:44:02.020Z,102198.34
2023-04-10T03:46:32.545Z,102193.13
2023-04-10T03:49:02.459Z,102196.69
2023-04-10T03:51:33.428Z,102191.09
2023-04-10T03:54:02.486Z,102196.53
2023-04-10T03:56:31.712Z,102196.31
2023-04-10T03:59:01.722Z,102186.03
2023-04-10T04:01:32.981Z,102186.63
2023-04-10T04:04:07.622Z,102185.44
2023-04-10T04:06:57.372Z,102183.53
2023-04-10T04:09:45.028Z,102188.31
2023-04-10T04:12:25.622Z,102184.28
2023-04-10T04:15:05.445Z,102189.16
2023-04-10T04:17:57.977Z,102186.75
2023-04-10T04:20:45.079Z,102186.84
2023-04-10T04:23:32.457Z,102184.09
2023-04-10T04:26:14.552Z,102180.63
2023-04-10T04:29:02.182Z,102186.19
2023-04-10T04:31:51.827Z,102193.66
2023-04-10T04:34:40.589Z,102187.88
2023-04-10T04:37:29.741Z,102186.34
2023-04-10T04:40:19.163Z,102180.22
2023-04-10T04:43:00.716Z,102180.97
2023-04-10T04:45:47.432Z,102182.66
2023-04-10T04:48:37.436Z,102180.28
2023-04-10T04:51:16.383Z,102183.88
2023-04-10T04:53:51.190Z,102173.19
2023-04-10T04:56:39.187Z,102175.88
2023-04-10T04:59:26.769Z,102175.75
2023-04-10T05:02:00.521Z,102182.19
2023-04-10T05:04:58.963Z,102182.00
2023-04-10T05:07:44.474Z,102181.91
2023-04-10T05:10:45.640Z,102184.44
2023-04-10T05:13:43.980Z,102181.00
2023-04-10T05:16:36.203Z,102185.03
2023-04-10T05:19:39.628Z,102186.66
2023-04-10T05:22:18.617Z,102184.56
2023-04-10T05:25:08.988Z,102178.66
2023-04-10T05:27:44.597Z,102177.84
2023-04-10T05:30:39.633Z,102182.50
2023-04-10T05:33:27.742Z,102174.63
2023-04-10T05:36:25.768Z,102159.88
2023-04-10T05:39:01.285Z,102168.22
2023-04-10T05:41:41.145Z,102164.56
2023-04-10T05:44:28.736Z,102164.50
2023-04-10T05:46:57.744Z,102158.28
2023-04-10T05:49:49.740Z,102159.31
2023-04-10T05:52:24.756Z,102154.53
2023-04-10T05:55:06.683Z,102154.69
2023-04-10T05:57:37.037Z,102150.53
2023-04-10T06:00:25.374Z,102152.59
2023-04-10T06:03:29.277Z,102142.22
2023-04-10T06:06:03.373Z,102147.91
2023-04-10T06:08:34.605Z,102149.78
2023-04-10T06:11:03.849Z,102145.41
2023-04-10T06:13:36.019Z,102136.13
2023-04-10T06:16:06.063Z,102134.09
2023-04-10T06:18:36.908Z,102135.94
2023-04-10T06:21:06.527Z,102128.34
2023-04-10T06:23:35.958Z,102122.00
2023-04-10T06:26:05.705Z,102111.84
2023-04-10T06:28:36.891Z,102115.47
2023-04-10T06:31:08.173Z,102113.81
2023-04-10T06:33:39.367Z,102103.56
2023-04-10T06:36:11.015Z,102103.44
2023-04-10T06:38:49.137Z,102101.69
2023-04-10T06:41:18.244Z,102097.81
2023-04-10T06:43:48.810Z,102096.19
2023-04-10T06:46:17.993Z,102094.25
2023-04-10T06:48:47.044Z,102091.88
2023-04-10T06:51:16.188Z,102085.19
2023-04-10T06:53:45.245Z,102090.41
2023-04-10T06:56:14.350Z,102095.13
2023-04-10T06:58:43.489Z,102091.84
2023-04-10T07:01:14.218Z,102091.50
2023-04-10T07:03:43.412Z,102088.84
2023-04-10T07:06:12.932Z,102089.28
2023-04-10T07:08:42.173Z,102081.13
2023-04-10T07:11:11.432Z,102082.25
2023-04-10T07:13:40.717Z,102086.81
2023-04-10T07:16:11.037Z,102088.59
2023-04-10T07:18:41.539Z,102083.34
2023-04-10T07:21:13.026Z,102084.34
2023-04-10T07:23:42.232Z,102077.31
2023-04-10T07:26:11.596Z,102078.94
2023-04-10T07:28:40.769Z,102072.69
2023-04-10T07:31:10.543Z,102072.97
2023-04-10T07:33:41.249Z,102075.03
2023-04-10T07:36:10.836Z,102066.75
2023-04-10T07:38:39.990Z,102063.69
2023-04-10T07:41:09.679Z,102060.97
2023-04-10T07:43:38.807Z,102063.25
2023-04-10T07:46:08.312Z,102053.81
2023-04-10T07:48:37.470Z,102057.69
2023-04-10T07:51:09.701Z,102060.13
2023-04-10T07:53:38.811Z,102052.53
2023-04-10T07:56:10.919Z,102047.72
2023-04-10T07:58:39.990Z,102046.28
2023-04-10T08:01:09.169Z,102046.34
2023-04-10T08:03:41.319Z,102046.31
2023-04-10T08:06:12.728Z,102044.66
2023-04-10T08:08:43.239Z,102046.00
2023-04-10T08:11:25.629Z,102041.50
2023-04-10T08:13:55.852Z,102042.34
2023-04-10T08:16:26.467Z,102044.44
2023-04-10T08:18:56.799Z,102036.25
2023-04-10T08:21:28.435Z,102034.41
2023-04-10T08:23:58.946Z,102038.63
2023-04-10T08:26:29.219Z,102027.72
2023-04-10T08:29:00.730Z,102021.16
2023-04-10T08:31:30.569Z,102015.88
2023-04-10T08:34:00.132Z,102020.78
2023-04-10T08:36:31.716Z,102013.38
2023-04-10T08:39:00.854Z,102015.94
2023-04-10T08:41:29.978Z,102014.09
2023-04-10T08:43:59.341Z,102010.25
2023-04-10T08:46:30.274Z,102006.78
2023-04-10T08:49:03.911Z,102000.06
2023-04-10T08:51:40.670Z,102009.28
2023-04-10T08:54:14.155Z,101994.84
2023-04-10T08:56:47.957Z,101990.91
2023-04-10T08:59:17.353Z,101986.31
2023-04-10T09:01:46.823Z,101986.53
2023-04-10T09:04:16.950Z,101981.63
2023-04-10T09:06:47.819Z,101976.66
2023-04-10T09:09:16.974Z,101975.94
2023-04-10T09:12:01.258Z,101970.53
2023-04-10T09:14:31.825Z,101971.75
2023-04-10T09:17:15.325Z,101959.03
2023-04-10T09:19:45.664Z,101954.56
2023-04-10T09:22:17.255Z,101959.13
2023-04-10T09:24:48.289Z,101947.31
2023-04-10T09:27:33.639Z,101941.66
2023-04-10T09:30:03.268Z,101941.63
2023-04-10T09:32:40.776Z,101938.88
2023-04-10T09:35:11.052Z,101926.44
2023-04-10T09:37:42.650Z,101920.19
2023-04-10T09:40:23.901Z,101914.19
2023-04-10T09:42:54.011Z,101908.63
2023-04-10T09:45:23.559Z,101909.44
2023-04-10T09:48:04.278Z,101906.28
2023-04-10T09:50:39.584Z,101890.22
2023-04-10T09:53:11.527Z,101882.41
2023-04-10T09:55:41.662Z,101884.38
2023-04-10T09:58:11.855Z,101875.72
2023-04-10T10:00:43.047Z,101864.41
2023-04-10T10:03:14.286Z,101870.72
2023-04-10T10:05:45.347Z,101855.19
2023-04-10T10:08:16.890Z,101854.56
2023-04-10T10:10:48.959Z,101842.59
2023-04-10T10:13:24.663Z,101841.84
2023-04-10T10:16:02.888Z,101837.13
2023-04-10T10:18:40.385Z,101851.16
2023-04-10T10:21:11.029Z,101826.13
2023-04-10T10:23:43.393Z,101819.97
2023-04-10T10:26:13.588Z,101819.31
2023-04-10T10:28:44.129Z,101807.56
2023-04-10T10:31:13.634Z,101810.25
2023-04-10T10:33:43.362Z,101805.13
2023-04-10T10:36:13.931Z,101806.69
2023-04-10T10:38:52.420Z,101792.09
2023-04-10T10:41:29.645Z,101787.88
2023-04-10T10:44:09.449Z,101782.59
2023-04-10T10:46:45.563Z,101771.53
2023-04-10T10:49:14.614Z,101763.13
2023-04-10T10:51:48.504Z,101762.75
2023-04-10T10:54:32.365Z,101756.31
2023-04-10T10:57:02.389Z,101760.59
2023-04-10T11:00:01.360Z,101740.06
2023-04-10T11:02:30.492Z,101738.03
2023-04-10T11:04:59.613Z,101740.66
2023-04-10T11:08:10.280Z,101732.88
2023-04-10T11:11:03.785Z,101719.13
2023-04-10T11:13:33.687Z,101722.56
2023-04-10T11:16:04.815Z,101714.59
2023-04-10T11:19:13.334Z,101703.28
2023-04-10T11:22:03.499Z,101711.72
2023-04-10T11:24:53.401Z,101688.28
2023-04-10T11:27:46.259Z,101705.22
2023-04-10T11:30:33.090Z,101683.97
2023-04-10T11:33:04.028Z,101674.72
2023-04-10T11:35:34.279Z,101672.56
2023-04-10T11:38:17.686Z,101665.38
2023-04-10T11:41:04.477Z,101662.91
2023-04-10T11:43:35.824Z,101648.13
2023-04-10T11:46:07.292Z,101655.31
2023-04-10T11:48:37.956Z,101655.34
2023-04-10T11:51:12.012Z,101652.84
2023-04-10T11:53:42.474Z,101640.91
2023-04-10T11:56:22.770Z,101638.75
2023-04-10T11:58:54.757Z,101641.56
2023-04-10T12:01:24.965Z,101628.22
2023-04-10T12:03:54.447Z,101627.25
2023-04-10T12:06:24.109Z,101627.94
2023-04-10T12:08:53.643Z,101628.94
2023-04-10T12:11:25.413Z,101614.00
2023-04-10T12:13:57.620Z,101611.03
2023-04-10T12:16:27.658Z,101593.78
2023-04-10T12:18:57.052Z,101589.69
2023-04-10T12:21:27.327Z,101589.38
2023-04-10T12:23:56.498Z,101597.88
2023-04-10T12:26:25.907Z,101597.06
2023-04-10T12:28:58.687Z,101584.19
2023-04-10T12:31:31.576Z,101579.34
2023-04-10T12:34:02.162Z,101574.00
2023-04-10T12:36:34.266Z,101585.44
2023-04-10T12:39:05.232Z,101578.44
2023-04-10T12:41:36.190Z,101573.06
2023-04-10T12:44:11.963Z,101567.00
2023-04-10T12:46:42.165Z,101562.06
2023-04-10T12:49:13.173Z,101557.28
2023-04-10T12:51:47.106Z,101551.34
2023-04-10T12:54:30.350Z,101553.50
2023-04-10T12:57:00.631Z,101545.91
2023-04-10T12:59:31.755Z,101554.97
2023-04-10T13:02:01.082Z,101543.47
2023-04-10T13:04:32.749Z,101527.22
2023-04-10T13:07:02.059Z,101526.66
2023-04-10T13:09:31.141Z,101523.59
2023-04-10T13:12:00.200Z,101502.25
2023-04-10T13:14:30.651Z,101505.56
2023-04-10T13:16:59.767Z,101503.63
2023-04-10T13:19:28.823Z,101502.34
2023-04-10T13:22:01.123Z,101493.38
2023-04-10T13:24:30.386Z,101487.56
2023-04-10T13:26:59.478Z,101483.44
2023-04-10T13:29:30.255Z,101468.69
2023-04-10T13:32:01.208Z,101457.00
2023-04-10T13:34:30.513Z,101456.53
2023-04-10T13:36:59.800Z,101454.00
2023-04-10T13:39:32.128Z,101452.31
2023-04-10T13:42:02.117Z,101438.38
2023-04-10T13:44:32.630Z,101436.50
2023-04-10T13:47:01.748Z,101432.25
2023-04-10T13:49:31.192Z,101418.16
2023-04-10T13:52:00.299Z,101414.94
2023-04-10T13:54:29.306Z,101428.84
2023-04-10T13:56:59.277Z,101411.19
2023-04-10T13:59:28.388Z,101396.13
2023-04-10T14:01:58.899Z,101391.22
2023-04-10T14:04:27.995Z,101383.94
2023-04-10T14:07:00.417Z,101379.09
2023-04-10T14:09:29.753Z,101382.78
2023-04-10T14:11:58.855Z,101359.72
2023-04-10T14:14:27.884Z,101367.00
2023-04-10T14:16:58.596Z,101346.88
2023-04-10T14:19:27.829Z,101347.78
2023-04-10T14:21:57.009Z,101352.22
2023-04-10T14:24:26.058Z,101353.25
2023-04-10T14:26:58.189Z,101335.66
2023-04-10T14:29:36.291Z,101342.47
2023-04-10T14:32:11.175Z,101329.97
2023-04-10T14:34:40.343Z,101325.47
2023-04-10T14:37:09.592Z,101313.59
2023-04-10T14:39:38.854Z,101312.78
2023-04-10T14:42:08.131Z,101299.69
2023-04-10T14:44:37.371Z,101298.50
2023-04-10T14:47:06.669Z,101298.66
2023-04-10T14:49:37.127Z,101280.41
2023-04-10T14:52:06.259Z,101271.31
2023-04-10T14:54:35.376Z,101269.31
2023-04-10T14:57:04.938Z,101252.56
2023-04-10T14:59:34.058Z,101250.56
2023-04-10T15:02:03.252Z,101237.81
2023-04-10T15:04:32.851Z,101245.06
2023-04-10T15:07:03.391Z,101234.78
2023-04-10T15:09:33.126Z,101223.00
2023-04-10T15:12:02.332Z,101226.69
2023-04-10T15:14:31.610Z,101212.56
2023-04-10T15:17:01.067Z,101205.25
2023-04-10T15:19:30.444Z,101221.38
2023-04-10T15:21:59.604Z,101199.09
2023-04-10T15:24:32.536Z,101198.44
2023-04-10T15:27:09.662Z,101189.84
2023-04-10T15:29:40.132Z,101197.31
2023-04-10T15:32:09.388Z,101190.88
2023-04-10T15:34:38.554Z,101183.75
2023-04-10T15:37:07.691Z,101177.44
2023-04-10T15:39:38.427Z,101166.84
2023-04-10T15:42:08.488Z,101161.53
2023-04-10T15:44:37.621Z,101152.75
2023-04-10T15:47:06.873Z,101151.56
2023-04-10T15:49:38.168Z,101143.44
2023-04-10T15:52:08.189Z,101139.25
2023-04-10T15:54:40.380Z,101115.34
2023-04-10T15:57:09.604Z,101112.03
2023-04-10T15:59:38.765Z,101108.22
2023-04-10T16:02:08.320Z,101114.09
2023-04-10T16:04:37.776Z,101102.94
2023-04-10T16:07:07.035Z,101102.81
2023-04-10T16:09:37.466Z,101092.88
2023-04-10T16:12:06.830Z,101098.84
2023-04-10T16:14:35.952Z,101098.22
2023-04-10T16:17:05.048Z,101083.63
2023-04-10T16:19:34.173Z,101082.59
2023-04-10T16:22:03.257Z,101072.81
2023-04-10T16:24:33.201Z,101074.16
2023-04-10T16:27:03.629Z,101070.34
2023-04-10T16:29:32.752Z,101066.72
2023-04-10T16:32:02.099Z,101057.13
2023-04-10T16:34:31.273Z,101051.31
2023-04-10T16:37:00.284Z,101052.44
2023-04-10T16:39:29.323Z,101045.47
2023-04-10T16:41:58.997Z,101045.78
2023-04-10T16:44:29.788Z,101042.00
2023-04-10T16:46:58.992Z,101040.47
2023-04-10T16:49:28.278Z,101031.19
2023-04-10T16:51:58.676Z,101030.88
2023-04-10T16:54:27.729Z,101027.53
2023-04-10T16:56:57.990Z,101008.66
2023-04-10T16:59:28.341Z,101010.31
2023-04-10T17:01:57.557Z,101003.38
2023-04-10T17:04:26.844Z,100994.06
2023-04-10T17:06:55.954Z,100997.72
2023-04-10T17:09:25.073Z,100997.03
2023-04-10T17:11:54.146Z,100978.84
2023-04-10T17:14:23.316Z,100978.03
2023-04-10T17:16:53.804Z,100978.03
2023-04-10T17:19:22.953Z,100966.09
2023-04-10T17:21:52.182Z,100974.81
2023-04-10T17:24:21.326Z,100958.47
2023-04-10T17:26:51.187Z,100966.88
2023-04-10T17:29:20.749Z,100960.09
2023-04-10T17:31:49.994Z,100960.25
2023-04-10T17:34:20.897Z,100956.16
2023-04-10T17:36:50.650Z,100966.06
2023-04-10T17:39:20.052Z,100958.94
2023-04-10T17:41:52.528Z,100949.88
2023-04-10T17:44:22.214Z,100958.41
2023-04-10T17:46:53.579Z,100947.84
2023-04-10T17:49:30.017Z,100954.94
2023-04-10T17:51:59.439Z,100947.81
2023-04-10T17:54:31.753Z,100948.66
2023-04-10T17:57:04.144Z,100943.84
2023-04-10T17:59:34.270Z,100916.88
2023-04-10T18:02:03.518Z,100915.22
2023-04-10T18:04:34.764Z,100924.78
2023-04-10T18:07:10.273Z,100919.69
2023-04-10T18:09:39.575Z,100925.03
2023-04-10T18:12:08.860Z,100920.25
2023-04-10T18:14:38.404Z,100918.41
2023-04-10T18:17:10.974Z,100917.22
2023-04-10T18:19:42.021Z,100919.03
2023-04-10T18:22:11.844Z,100920.19
2023-04-10T18:24:41.927Z,100918.38
2023-04-10T18:27:16.833Z,100912.63
2023-04-10T18:29:50.825Z,100909.59
2023-04-10T18:32:22.854Z,100903.13
2023-04-10T18:34:54.504Z,100906.66
2023-04-10T18:37:28.994Z,100908.19
2023-04-10T18:40:03.502Z,100902.34
2023-04-10T18:42:43.133Z,100896.38
2023-04-10T18:45:15.145Z,100900.56
2023-04-10T18:47:47.959Z,100895.50
2023-04-10T18:50:19.405Z,100881.09
2023-04-10T18:52:50.830Z,100892.34
2023-04-10T18:55:21.858Z,100886.88
2023-04-10T18:57:53.844Z,100870.66
2023-04-10T19:00:23.299Z,100877.66
2023-04-10T19:02:52.508Z,100875.09
2023-04-10T19:05:23.386Z,100865.84
2023-04-10T19:08:03.689Z,100868.97
2023-04-10T19:10:34.668Z,100866.34
2023-04-10T19:13:06.810Z,100849.34
2023-04-10T19:15:41.469Z,100857.91
2023-04-10T19:18:13.122Z,100849.69
2023-04-10T19:20:53.571Z,100848.31
2023-04-10T19:23:23.002Z,100846.00
2023-04-10T19:25:55.719Z,100843.88
2023-04-10T19:28:25.702Z,100838.97
2023-04-10T19:30:54.952Z,100848.88
2023-04-10T19:33:26.890Z,100845.88
2023-04-10T19:35:59.179Z,100836.13
2023-04-10T19:38:29.541Z,100838.06
2023-04-10T19:40:59.021Z,100827.34
2023-04-10T19:43:30.165Z,100820.25
2023-04-10T19:45:59.911Z,100809.34
2023-04-10T19:48:30.301Z,100816.06
2023-04-10T19:51:08.638Z,100803.66
2023-04-10T19:53:37.822Z,100795.91
2023-04-10T19:56:07.627Z,100796.56
2023-04-10T19:58:41.039Z,100788.78
2023-04-10T20:01:11.820Z,100795.38
2023-04-10T20:03:41.558Z,100778.09
2023-04-10T20:06:12.119Z,100763.72
2023-04-10T20:08:41.227Z,100755.81
2023-04-10T20:11:10.245Z,100760.25
2023-04-10T20:13:40.883Z,100759.59
2023-04-10T20:16:10.213Z,100752.22
2023-04-10T20:18:41.136Z,100743.22
2023-04-10T20:21:11.569Z,100744.06
2023-04-10T20:23:40.648Z,100749.84
2023-04-10T20:26:09.690Z,100739.28
2023-04-10T20:28:39.493Z,100726.88
2023-04-10T20:31:10.679Z,100722.56
2023-04-10T20:33:39.810Z,100709.03
2023-04-10T20:36:09.708Z,100693.69
2023-04-10T20:38:40.333Z,100695.13
2023-04-10T20:41:09.486Z,100681.81
2023-04-10T20:43:38.744Z,100672.91
2023-04-10T20:46:08.965Z,100671.91
2023-04-10T20:48:38.321Z,100654.91
2023-04-10T20:51:08.130Z,100662.31
2023-04-10T20:53:37.172Z,100652.63
2023-04-10T20:56:08.194Z,100650.19
2023-04-10T20:58:37.348Z,100649.59
2023-04-10T21:01:08.934Z,100627.34
2023-04-10T21:03:38.354Z,100632.72
2023-04-10T21:06:09.021Z,100621.22
2023-04-10T21:08:38.143Z,100618.25
2023-04-10T21:11:08.899Z,100614.00
2023-04-10T21:13:38.584Z,100594.19
2023-04-10T21:16:08.417Z,100588.00
2023-04-10T21:18:37.534Z,100587.09
2023-04-10T21:21:07.080Z,100580.97
2023-04-10T21:23:36.171Z,100583.28
2023-04-10T21:26:05.317Z,100593.53
2023-04-10T21:28:35.799Z,100571.13
2023-04-10T21:31:05.024Z,100574.72
2023-04-10T21:33:34.187Z,100583.47
2023-04-10T21:36:03.298Z,100591.53
2023-04-10T21:38:32.376Z,100590.06
2023-04-10T21:41:01.497Z,100578.13
2023-04-10T21:43:30.616Z,100595.78
2023-04-10T21:46:02.691Z,100600.06
2023-04-10T21:48:32.036Z,100599.81
2023-04-10T21:51:02.779Z,100608.97
2023-04-10T21:53:31.827Z,100607.41
2023-04-10T21:56:00.971Z,100606.03
2023-04-10T21:58:31.602Z,100597.56
2023-04-10T22:01:02.313Z,100601.66
2023-04-10T22:03:31.673Z,100598.25
2023-04-10T22:06:00.953Z,100609.44
2023-04-10T22:08:30.135Z,100606.16
2023-04-10T22:10:59.174Z,100596.91
2023-04-10T22:13:31.130Z,100592.50
2023-04-10T22:16:02.809Z,100608.81
2023-04-10T22:18:32.254Z,100608.91
2023-04-10T22:21:01.437Z,100602.19
2023-04-10T22:23:30.521Z,100605.88
2023-04-10T22:26:01.487Z,100608.91
2023-04-10T22:28:30.580Z,100613.28
2023-04-10T22:31:01.204Z,100609.84
2023-04-10T22:33:32.564Z,100606.50
2023-04-10T22:36:01.598Z,100605.75
2023-04-10T22:38:30.764Z,100631.81
2023-04-10T22:40:59.831Z,100614.84
2023-04-10T22:43:29.011Z,100623.72
2023-04-10T22:45:58.092Z,100625.81
2023-04-10T22:48:28.534Z,100623.47
2023-04-10T22:50:57.595Z,100610.22
2023-04-10T22:53:28.607Z,100609.66
2023-04-10T22:55:57.679Z,100614.75
2023-04-10T22:58:26.805Z,100610.06
2023-04-10T23:00:55.897Z,100602.03
2023-04-10T23:03:24.994Z,100597.59
2023-04-10T23:05:55.445Z,100600.75
2023-04-10T23:08:24.578Z,100597.59
2023-04-10T23:10:54.474Z,100590.56
2023-04-10T23:13:23.933Z,100571.63
2023-04-10T23:15:54.034Z,100562.94
2023-04-10T23:18:23.831Z,100561.28
2023-04-10T23:20:54.347Z,100560.00
2023-04-10T23:23:23.439Z,100558.19
2023-04-10T23:25:59.165Z,100544.28
2023-04-10T23:28:28.517Z,100538.00
2023-04-10T23:30:57.580Z,100527.38
2023-04-10T23:33:27.107Z,100526.13
2023-04-10T23:35:57.599Z,100520.34
2023-04-10T23:38:26.700Z,100510.75
2023-04-10T23:40:55.813Z,100505.84
2023-04-10T23:43:24.871Z,100509.47
2023-04-10T23:45:54.036Z,100496.13
2023-04-10T23:48:23.159Z,100495.69
2023-04-10T23:50:52.332Z,100491.81
2023-04-10T23:53:22.740Z,100487.28
2023-04-10T23:55:51.842Z,100482.56
2023-04-10T23:58:20.924Z,100475.66
